Altus, Oklahoma
Current Conditions -  °F | °C
As of 9:58 PM on Wednesday 17 Dec 2014 (Local Time) from KLTS Reporting Station
Haze Haze  
Wind Chill: 33°   Ceiling: 400
Heat Index: 39°   Visibility: 6mi
Dew Point: 39°   Wind: 9mph
Humidity: 100%   Direction: 140°SE
Pressure: 30.12"   Gusts: NA
Location:  34.64°N, 99.33°W
Report Text: KLTS 180358Z 14008KT 6SM BR OVC004 04/04 A3012 RMK AO2A SLP205 T00410041 $
Loading
Personal Weather Stations






























Interactive Weather Map New forecast layout! Learn more

10-Day Weather Forecast

Advertisements
Track Severe Weather on mobile